Flight Track Log - Related Links

Times and Time Zones

All times are in EDT time to prevent confusion due to time zone crossing. See the LAK145 flight status page for this flight to view local times or setup timezone preferences in your user account.

Time Position Orientation Groundspeed Altitude Reporting Facility
EDT Latitude Longitude Course Direction KTS MPH feet Rate Location/Type
Sun 11:56:30 PM 37.6500 -122.3667 270° West 181 208 3,300  Level Northern Cal TRACON
Sun 11:57:35 PM 37.6500 -122.4500 270° West 253 291 8,000 3,701 Climbing Northern Cal TRACON
Sun 11:58:17 PM 37.6106 -122.4742 206° Southwest 243 280 9,900 1,748 Climbing Oakland Center
Sun 11:59:18 PM 37.5361 -122.4875 188° South 280 322 11,000 541 Climbing Oakland Center
Mon 12:00:19 AM 37.4572 -122.4736 172° South 285 328 11,000  Level Oakland Center
Mon 12:01:20 AM 37.3786 -122.4672 176° South 283 326 11,000  Level Oakland Center
Mon 12:02:21 AM 37.2992 -122.4603 176° South 285 328 11,000  Level Oakland Center
Mon 12:03:22 AM 37.2206 -122.4542 176° South 282 325 11,000 -246 Level Oakland Center
Mon 12:04:23 AM 37.1456 -122.4294 165° South 278 320 10,500 -836 Descending Oakland Center
Mon 12:05:24 AM 37.0694 -122.3581 143° Southeast 282 325 9,300 -1,131 Descending Oakland Center
Mon 12:06:25 AM 37.0058 -122.2989 143° Southeast 284 327 8,200 -689 Descending Oakland Center
Mon 12:07:26 AM 36.9425 -122.2453 146° Southeast 278 320 7,900 -1,082 Descending Oakland Center
Mon 12:08:27 AM 36.8797 -122.2100 156° South 255 293 6,000 -1,918 Descending Oakland Center
Mon 12:09:28 AM 36.8236 -122.1722 152° Southeast 241 277 4,000 -1,475 Descending Oakland Center
Mon 12:10:29 AM 36.7711 -122.1336 149° Southeast 229 264 3,000 -488 Descending Oakland Center
Mon 12:11:31 AM 36.7219 -122.0983 150° Southeast 216 249 3,000  Level Oakland Center
Mon 12:12:35 AM 36.6667 -122.0500 145° Southeast 199 229 3,000 -144 Level Northern Cal TRACON
Mon 12:13:36 AM 36.6333 -122.0000 130° Southeast 164 189 2,700 -595 Descending Northern Cal TRACON
Mon 12:14:36 AM 36.6167 -121.9500 113° Southeast 150 173 1,800 -842 Descending Northern Cal TRACON
Mon 12:15:30 AM 36.6167 -121.9167 90° East 150 173 1,100 -684 Descending Northern Cal TRACON
Mon 12:16:30 AM 36.6000 -121.8833 122° Southeast 116 133 500 -400 Descending Northern Cal TRACON
Mon 12:17:30 AM 36.5833 -121.8333 113° Southeast 109 125 300 -200 Descending Northern Cal TRACON

Login

Don't have an account? Register now (free) for customized features, flight alerts, and more!